• Join FlightAware (Why Join?)
  • Login
  • US Flag 
03:22AM EDT


 

Airport Tracker/Info


-or-


 

Live Flight TrackerFlight Track Log ✈ N51EF ✈ 01-Jul-2013 ✈ KFLL - KARR

Flight Track Log - Related Links

Times and Time Zones

All times are in EDT time to prevent confusion due to time zone crossing. See the N51EF flight status page for this flight to view local times or setup timezone preferences in your user account.

Time Position Orientation Groundspeed Altitude Reporting Facility
EDT Latitude Longitude Course Direction KTS MPH feet Rate Location/Type
06:10AM 26.0750 -80.1367 83° East 174 200 700  Level Miami Center
06:11AM 26.0828 -80.0653 83° East 219 252 3,700 2,700 Climbing Miami Center
06:12AM 26.1439 -80.0344 24° Northeast 252 290 6,700 2,400 Climbing Miami Center
06:13AM 26.1889 -80.0819 317° Northwest 251 289 8,900 2,220 Climbing Miami Center
06:15AM 26.2181 -80.1847 288° West 267 307 12,000 2,280 Climbing Miami Center
06:16AM 26.2347 -80.2683 283° West 267 307 14,300 2,100 Climbing Miami Center
06:17AM 26.2517 -80.3569 282° West 278 320 16,300 1,980 Climbing Miami Center
06:18AM 26.2683 -80.4408 283° West 298 343 18,300 2,040 Climbing Miami Center
06:19AM 26.2867 -80.5411 282° West 303 349 20,400 1,860 Climbing Miami Center
06:20AM 26.3439 -80.5867 324° Northwest 271 312 22,100 1,680 Climbing Miami Center
06:21AM 26.4378 -80.5944 356° North 288 331 23,800 1,380 Climbing Miami Center
06:22AM 26.5192 -80.6017 355° North 311 358 24,900 1,200 Climbing Miami Center
06:23AM 26.6147 -80.6208 350° North 318 366 26,300 1,260 Climbing Miami Center
06:24AM 26.6847 -80.6581 335° Northwest 310 357 27,500 1,140 Climbing Miami Center
06:25AM 26.7686 -80.7236 325° Northwest 323 372 28,600 900 Climbing Miami Center
06:26AM 26.8339 -80.7769 324° Northwest 330 380 29,400 900 Climbing Miami Center
06:27AM 26.9094 -80.8378 324° Northwest 336 387 30,400 960 Climbing Miami Center
06:28AM 26.9872 -80.8986 325° Northwest 336 387 31,400 900 Climbing Miami Center
06:29AM 27.0242 -80.9931 294° West 325 374 32,300 840 Climbing Miami Center
06:30AM 27.0608 -81.0994 291° West 325 374 33,100 720 Climbing Miami Center
06:31AM 27.0978 -81.1964 293° West 331 381 33,800 720 Climbing Miami Center
06:32AM 27.1342 -81.2958 292° West 343 395 34,600 720 Climbing Miami Center
06:33AM 27.1689 -81.3881 293° West 348 400 35,300 780 Climbing Miami Center
06:34AM 27.2050 -81.5039 289° West 355 409 36,200 780 Climbing Miami Center
06:35AM 27.2394 -81.6033 291° West 349 402 36,900 600 Climbing Miami Center
06:36AM 27.2733 -81.7075 290° West 349 402 37,400 480 Climbing Miami Center
06:37AM 27.3039 -81.7975 291° West 350 403 37,900 300 Climbing Miami Center
06:38AM 27.3397 -81.9019 291° West 356 410 38,000  Climbing Miami Center
06:39AM 27.4289 -81.9831 321° Northwest 356 410 38,000  Level Miami Center
06:40AM 27.5361 -82.0181 344° North 388 447 38,000  Level Miami Center
06:41AM 27.6511 -82.0092 North 388 447 38,000 240 Level Miami Center
06:43AM 27.8461 -81.9444 16° North 411 473 38,700 480 Climbing Jacksonville Center
06:44AM 27.9464 -81.9906 338° Northwest 388 447 39,500 600 Climbing Jacksonville Center
06:45AM 28.0489 -82.0294 341° North 388 447 39,900 240 Climbing Jacksonville Center
06:46AM 28.1556 -82.0686 342° North 394 453 40,000  Climbing Jacksonville Center
06:47AM 28.2644 -82.1056 343° North 404 465 40,000  Level Jacksonville Center
06:48AM 28.3753 -82.1447 343° North 404 465 40,000  Level Jacksonville Center
06:49AM 28.4903 -82.1839 343° North 410 472 40,000  Level Jacksonville Center
06:50AM 28.6031 -82.2258 342° North 417 480 40,000  Level Jacksonville Center
06:51AM 28.7161 -82.2628 344° North 423 487 40,000  Level Jacksonville Center
06:52AM 28.8311 -82.3047 342° North 423 487 40,000  Level Jacksonville Center
06:53AM 28.9522 -82.3467 343° North 423 487 40,000  Level Jacksonville Center
06:54AM 29.0631 -82.3842 344° North 418 481 40,000  Level Jacksonville Center
06:55AM 29.1739 -82.4264 342° North 418 481 40,000  Level Jacksonville Center
06:56AM 29.2844 -82.4639 344° North 418 481 40,000 60 Level Jacksonville Center
06:57AM 29.3975 -82.4825 352° North 418 481 40,200 360 Climbing Jacksonville Center
06:58AM 29.5122 -82.4942 355° North 411 473 40,800 600 Climbing Jacksonville Center
06:59AM 29.6231 -82.5128 352° North 406 467 41,400 540 Climbing Jacksonville Center
07:00AM 29.7275 -82.5531 341° North 391 450 41,900 540 Climbing Jacksonville Center
07:01AM 29.8278 -82.5886 343° North 386 444 42,500 480 Climbing Jacksonville Center
07:02AM 29.9300 -82.6267 342° North 381 438 42,900 240 Climbing Jacksonville Center
07:03AM 30.0261 -82.6694 339° North 381 438 43,000  Climbing Jacksonville Center
07:04AM 30.1286 -82.7006 345° North 376 433 43,000  Level Jacksonville Center
07:05AM 30.2331 -82.7386 343° North 383 441 43,000  Level Jacksonville Center
07:06AM 30.3417 -82.7625 349° North 383 441 43,000  Level Jacksonville Center
07:07AM 30.4522 -82.7769 354° North 390 449 43,000  Level Jacksonville Center
07:08AM 30.5608 -82.8008 349° North 397 457 43,000  Level Jacksonville Center
07:09AM 30.6694 -82.8347 345° North 397 457 43,000  Level Jacksonville Center
07:10AM 30.7739 -82.8781 340° North 392 451 43,000  Level Jacksonville Center
07:11AM 30.8803 -82.9167 343° North 397 457 43,000  Level Jacksonville Center
07:12AM 30.9639 -82.9483 342° North 397 457 43,000  Level Jacksonville Center
07:13AM 31.0828 -82.9897 343° North 397 457 43,000  Level Jacksonville Center
07:14AM 31.1914 -83.0311 342° North 403 464 43,000  Level Jacksonville Center
07:15AM 31.3000 -83.0725 342° North 403 464 43,000  Level Jacksonville Center
07:17AM 31.5558 -83.1736 341° North 413 475 43,000  Level Atlanta Center
07:18AM 31.6686 -83.2142 343° North 413 475 43,000  Level Atlanta Center
07:19AM 31.7797 -83.2594 341° North 418 481 43,000  Level Atlanta Center
07:20AM 31.8803 -83.3272 330° Northwest 412 474 43,000  Level Atlanta Center
07:21AM 31.9869 -83.3753 339° North 412 474 43,000  Level Atlanta Center
07:22AM 32.0978 -83.4186 342° North 412 474 43,000  Level Atlanta Center
07:23AM 32.2108 -83.4619 342° North 417 480 43,000  Level Atlanta Center
07:24AM 32.3217 -83.5081 341° North 417 480 43,000  Level Atlanta Center
07:25AM 32.4322 -83.5492 343° North 422 486 43,000  Level Atlanta Center
07:26AM 32.5431 -83.5953 341° North 422 486 43,000  Level Atlanta Center
07:27AM 32.6561 -83.6367 343° North 422 486 43,000  Level Atlanta Center
07:28AM 32.7689 -83.6806 342° North 427 491 43,000  Level Atlanta Center
07:29AM 32.8775 -83.7247 341° North 427 491 43,000  Level Atlanta Center
07:30AM 32.9925 -83.7689 342° North 427 491 43,000  Level Atlanta Center
07:31AM 33.0928 -83.8083 342° North 427 491 43,000  Level Atlanta Center
07:32AM 33.2014 -83.8528 341° North 421 484 43,000  Level Atlanta Center
07:33AM 33.3119 -83.8947 342° North 421 484 43,000  Level Atlanta Center
07:34AM 33.4228 -83.9392 341° North 421 484 43,000  Level Atlanta Center
07:35AM 33.5311 -83.9814 342° North 421 484 43,000  Level Atlanta Center
07:36AM 33.6419 -84.0239 342° North 416 479 43,000  Level Atlanta Center
07:37AM 33.7503 -84.0689 341° North 410 472 43,000  Level Atlanta Center
07:38AM 33.8589 -84.1114 342° North 410 472 43,000  Level Atlanta Center
07:39AM 33.9653 -84.1539 342° North 403 464 43,000  Level Atlanta Center
07:40AM 34.0739 -84.1967 342° North 403 464 43,000  Level Atlanta Center
07:41AM 34.1803 -84.2422 340° North 409 471 43,000  Level Atlanta Center
07:42AM 34.2867 -84.2853 342° North 409 471 43,000  Level Atlanta Center
07:43AM 34.3931 -84.3308 341° North 409 471 43,000  Level Atlanta Center
07:44AM 34.5097 -84.3767 342° North 409 471 43,000  Level Atlanta Center
07:45AM 34.6181 -84.4200 342° North 409 471 43,000  Level Atlanta Center
07:46AM 34.7222 -84.4633 341° North 404 465 43,000  Level Atlanta Center
07:47AM 34.8286 -84.5094 340° North 404 465 43,000  Level Atlanta Center
07:48AM 34.9286 -84.5506 341° North 394 453 43,000  Level Atlanta Center
07:49AM 35.0347 -84.5942 341° North 394 453 43,000  Level Atlanta Center
07:50AM 35.1369 -84.6381 341° North 394 453 43,000  Level Atlanta Center
07:51AM 35.2431 -84.6822 341° North 394 453 43,000  Level Atlanta Center
07:52AM 35.3469 -84.7264 341° North 394 453 43,000  Level Atlanta Center
07:53AM 35.4511 -84.7706 341° North 388 447 43,000  Level Atlanta Center
07:54AM 35.5531 -84.8122 342° North 388 447 43,000  Level Atlanta Center
07:55AM 35.6550 -84.8567 340° North 388 447 43,000  Level Atlanta Center
07:57AM 35.8850 -84.9511 342° North 395 455 43,000  Level Indianapolis Center
07:58AM 36.0053 -85.0022 341° North 394 453 43,000  Level Indianapolis Center
07:59AM 36.1089 -85.0456 341° North 393 452 43,000  Level Indianapolis Center
08:00AM 36.2131 -85.0903 341° North 395 455 43,000  Level Indianapolis Center
08:01AM 36.3164 -85.1347 341° North 393 452 43,000  Level Indianapolis Center
08:02AM 36.4203 -85.1789 341° North 395 455 43,000  Level Indianapolis Center
08:03AM 36.5133 -85.2472 329° Northwest 389 448 43,000  Level Indianapolis Center
08:04AM 36.6017 -85.3244 325° Northwest 387 445 43,000  Level Indianapolis Center
08:05AM 36.6911 -85.4014 325° Northwest 389 448 43,000  Level Indianapolis Center
08:06AM 36.7797 -85.4800 325° Northwest 391 450 43,000  Level Indianapolis Center
08:07AM 36.8822 -85.5606 328° Northwest 397 457 43,000  Level Indianapolis Center
08:08AM 36.9744 -85.6369 327° Northwest 396 456 43,000  Level Indianapolis Center
08:09AM 37.0681 -85.7128 327° Northwest 398 458 43,000  Level Indianapolis Center
08:10AM 37.1597 -85.7906 326° Northwest 397 457 43,000  Level Indianapolis Center
08:11AM 37.2525 -85.8692 326° Northwest 399 459 43,000  Level Indianapolis Center
08:12AM 37.3556 -85.9686 323° Northwest 399 459 43,000  Level Indianapolis Center
08:13AM 37.4478 -86.0472 326° Northwest 398 458 43,000  Level Indianapolis Center
08:14AM 37.5564 -86.0831 345° North 411 473 43,000  Level Indianapolis Center
08:15AM 37.6661 -86.1192 345° North 409 471 43,000  Level Indianapolis Center
08:16AM 37.7756 -86.1539 346° North 405 466 43,000  Level Indianapolis Center
08:18AM 37.8856 -86.1881 346° North 406 467 43,000  Level Indianapolis Center
08:19AM 37.9942 -86.2236 346° North 403 464 43,000 -360 Level Indianapolis Center
08:20AM 38.1050 -86.2583 346° North 410 472 42,300 -960 Descending Indianapolis Center
08:21AM 38.2219 -86.2958 346° North 429 494 41,100 -1,320 Descending Indianapolis Center
08:22AM 38.3603 -86.3392 346° North 428 493 39,700 -1,260 Descending Indianapolis Center
08:23AM 38.4739 -86.3758 346° North 423 487 38,600 -1,140 Descending Indianapolis Center
08:24AM 38.5869 -86.4131 346° North 419 482 37,400 -1,200 Descending Indianapolis Center
08:25AM 38.7008 -86.4514 345° North 423 487 36,200 -1,200 Descending Indianapolis Center
08:26AM 38.8153 -86.4883 346° North 424 488 35,000 -1,260 Descending Indianapolis Center
08:27AM 38.9356 -86.5275 346° North 413 475 33,700 -1,260 Descending Indianapolis Center
08:28AM 39.0436 -86.5628 346° North 403 464 32,500 -1,320 Descending Indianapolis Center
08:29AM 39.1486 -86.5975 346° North 393 452 31,100 -1,380 Descending Indianapolis Center
08:30AM 39.2514 -86.6311 346° North 382 440 29,800 -1,200 Descending Indianapolis Center
08:31AM 39.3603 -86.6672 346° North 398 458 28,700 -1,020 Descending Indianapolis Center
08:32AM 39.4597 -86.7267 335° Northwest 392 451 27,800 -1,020 Descending Indianapolis Center
08:33AM 39.5658 -86.7853 337° Northwest 408 470 26,700 -900 Descending Indianapolis Center
08:34AM 39.6692 -86.8453 336° Northwest 404 465 26,000 -360 Descending Indianapolis Center
08:35AM 39.7697 -86.9047 336° Northwest 398 458 26,000  Level Indianapolis Center
08:36AM 39.8725 -86.9656 336° Northwest 401 461 26,000 -540 Level Indianapolis Center
08:37AM 39.9964 -87.0369 336° Northwest 405 466 25,000 -840 Descending Indianapolis Center
08:38AM 40.0964 -87.0953 336° Northwest 394 453 24,300 -960 Descending Indianapolis Center
08:39AM 40.1981 -87.1531 337° Northwest 396 456 23,100 -1,320 Descending Indianapolis Center
08:40AM 40.2989 -87.2119 336° Northwest 398 458 21,600 -1,800 Descending Indianapolis Center
08:41AM 40.3967 -87.2706 335° Northwest 390 449 19,500 -2,100 Descending Indianapolis Center
08:42AM 40.4906 -87.3242 337° Northwest 375 432 17,400 -2,100 Descending Indianapolis Center
08:43AM 40.5797 -87.3769 336° Northwest 357 411 15,300 -2,100 Descending Indianapolis Center
08:44AM 40.6658 -87.4281 336° Northwest 346 398 13,200 -1,740 Descending Indianapolis Center
08:45AM 40.7694 -87.4889 336° Northwest 331 381 11,500 -1,320 Descending Chicago Center
08:46AM 40.8433 -87.5336 335° Northwest 298 343 10,300 -1,800 Descending Chicago Center
08:47AM 40.9261 -87.5850 335° Northwest 277 319 7,900 -2,220 Descending Chicago Center
08:48AM 40.9950 -87.6278 335° Northwest 275 316 5,800 -1,860 Descending Chicago Center
08:49AM 41.0508 -87.6939 318° Northwest 277 319 4,200 -900 Descending Chicago Center
08:50AM 41.1036 -87.7625 316° Northwest 273 314 4,000 -120 Descending Chicago Center
08:51AM 41.1556 -87.8275 317° Northwest 265 305 4,000  Level Chicago Center
08:53AM 41.2111 -87.8861 322° Northwest 260 299 4,000  Level Chicago Center
08:54AM 41.2803 -87.9597 321° Northwest 263 303 4,000  Level Chicago Center
08:55AM 41.3386 -88.0214 322° Northwest 266 306 4,000  Level Chicago Center
08:56AM 41.3972 -88.0831 322° Northwest 264 304 4,000  Level Chicago Center
08:57AM 41.4544 -88.1450 321° Northwest 259 298 4,000  Level Chicago Center
08:58AM 41.5106 -88.2056 321° Northwest 259 298 4,000  Level Chicago Center
08:59AM 41.5664 -88.2658 321° Northwest 258 297 4,000 -120 Level Chicago Center
09:00AM 41.6211 -88.3269 320° Northwest 257 296 3,800 -540 Descending Chicago Center
09:01AM 41.6711 -88.3917 316° Northwest 255 293 3,000 -720 Descending Chicago Center
09:02AM 41.7192 -88.4294 330° Northwest 213 245 2,400 -300 Descending Chicago Center
09:03AM 41.7297 -88.5006 281° West 179 206 2,400 -180 Level Chicago Center
09:04AM 41.7447 -88.5386 298° West 149 171 2,100 -540 Descending Chicago Center
09:05AM 41.7681 -88.5178 34° Northeast 112 129 1,300 -660 Descending Chicago Center
09:06AM 41.7747 -88.4794 77° East 109 125 800 -540 Descending Chicago Center